Time;durP1;ratioP1;P1;durP2;ratioP2;P2;SDS_P1;SDS_P2;PMS_P1;PMS_P2;Temp;Humidity;BMP_temperature;BMP_pressure;BME280_temperature;BME280_humidity;BME280_pressure;Samples;Min_cycle;Max_cycle;Signal;HPM_P1;HPM_P2
2023/08/03 00:00:21;;;;;;;3.57;1.10;;;20.90;99.90;;;;;;5027360;28;20339;-83
2023/08/03 00:02:47;;;;;;;3.03;1.10;;;20.70;99.90;;;;;;5041589;28;20278;-84
2023/08/03 00:05:17;;;;;;;1.77;1.10;;;20.70;99.90;;;;;;5045861;28;20263;-83
2023/08/03 00:07:43;;;;;;;3.53;1.10;;;20.60;99.90;;;;;;5028432;28;20174;-84
2023/08/03 00:10:09;;;;;;;1.97;1.00;;;20.60;99.90;;;;;;5028767;28;20180;-84
2023/08/03 00:12:35;;;;;;;2.47;1.30;;;20.70;99.90;;;;;;5045492;28;20329;-84
2023/08/03 00:15:00;;;;;;;1.73;0.97;;;20.80;99.90;;;;;;5024340;28;20546;-85
2023/08/03 00:17:26;;;;;;;2.13;1.00;;;20.80;99.90;;;;;;5028247;28;20204;-84
2023/08/03 00:19:52;;;;;;;3.03;1.00;;;20.90;99.90;;;;;;5029126;28;20172;-84
2023/08/03 00:22:17;;;;;;;2.10;0.90;;;20.80;99.90;;;;;;5029490;28;20188;-84
2023/08/03 00:24:43;;;;;;;2.37;1.00;;;20.80;99.90;;;;;;5044083;28;20266;-84
2023/08/03 00:27:09;;;;;;;2.50;1.30;;;20.80;99.90;;;;;;5024164;28;20211;-85
2023/08/03 00:29:36;;;;;;;1.40;1.00;;;20.90;99.90;;;;;;5032230;28;20241;-84
2023/08/03 00:32:01;;;;;;;2.27;1.10;;;20.90;99.90;;;;;;5025792;28;20248;-85
2023/08/03 00:34:30;;;;;;;2.13;1.07;;;20.90;99.90;;;;;;5029325;28;20512;-85
2023/08/03 00:36:56;;;;;;;2.80;1.00;;;20.90;99.90;;;;;;5023739;28;20296;-84
2023/08/03 00:39:24;;;;;;;2.23;0.90;;;21.00;99.90;;;;;;5029123;28;20204;-84
2023/08/03 00:41:51;;;;;;;1.83;1.00;;;20.90;99.90;;;;;;5026747;28;20191;-85
2023/08/03 00:44:16;;;;;;;1.47;1.00;;;20.80;99.90;;;;;;5036531;28;20397;-85
2023/08/03 00:46:42;;;;;;;1.10;0.80;;;20.80;99.90;;;;;;5032906;28;20694;-84
2023/08/03 00:49:09;;;;;;;2.07;1.00;;;20.80;99.90;;;;;;5032414;28;20183;-84
2023/08/03 00:51:36;;;;;;;1.93;1.10;;;20.80;99.90;;;;;;5034703;28;20196;-84
2023/08/03 00:54:06;;;;;;;1.13;0.90;;;20.80;99.90;;;;;;5029728;28;20180;-85
2023/08/03 00:56:35;;;;;;;1.00;0.90;;;20.80;99.90;;;;;;5031462;28;20180;-84
2023/08/03 00:59:06;;;;;;;2.33;1.00;;;20.70;99.90;;;;;;5049446;28;20275;-84
2023/08/03 01:01:32;;;;;;;1.67;0.90;;;20.60;99.90;;;;;;5025050;28;20188;-84
2023/08/03 01:03:58;;;;;;;2.17;1.00;;;20.60;99.90;;;;;;5026042;28;20193;-84
2023/08/03 01:06:23;;;;;;;1.97;0.83;;;20.70;99.90;;;;;;5027481;28;20227;-84
2023/08/03 01:08:49;;;;;;;1.63;0.90;;;20.70;99.90;;;;;;5043256;28;20172;-84
2023/08/03 01:11:15;;;;;;;1.13;0.80;;;20.80;99.90;;;;;;5027165;28;20181;-84
2023/08/03 01:13:41;;;;;;;2.07;1.00;;;20.80;99.90;;;;;;5024770;28;20202;-84
2023/08/03 01:16:09;;;;;;;1.60;0.93;;;20.80;99.90;;;;;;5032940;28;20592;-84
2023/08/03 01:18:42;;;;;;;1.07;0.83;;;20.90;99.90;;;;;;5026382;28;20176;-83
2023/08/03 01:21:08;;;;;;;1.33;0.80;;;20.80;99.90;;;;;;5028744;28;20188;-84
2023/08/03 01:23:37;;;;;;;0.77;0.70;;;20.80;99.90;;;;;;5027637;28;20208;-84
2023/08/03 01:26:03;;;;;;;2.37;0.93;;;20.80;99.90;;;;;;5025783;28;20295;-84
2023/08/03 01:28:29;;;;;;;0.90;0.60;;;20.80;99.90;;;;;;5044457;28;20263;-85
2023/08/03 01:30:55;;;;;;;1.07;0.77;;;20.80;99.90;;;;;;5030924;28;20176;-85
2023/08/03 01:33:20;;;;;;;1.77;0.90;;;20.70;99.90;;;;;;5022089;28;20187;-84
2023/08/03 01:35:46;;;;;;;1.70;0.73;;;20.70;99.90;;;;;;5031700;28;20188;-84
2023/08/03 01:38:13;;;;;;;1.23;0.90;;;20.80;99.90;;;;;;5038604;28;20180;-84
2023/08/03 01:40:40;;;;;;;1.80;0.90;;;20.90;99.90;;;;;;5052478;28;20168;-84
2023/08/03 01:43:06;;;;;;;1.43;0.80;;;20.80;99.90;;;;;;5047954;28;20183;-84
2023/08/03 01:45:32;;;;;;;1.77;0.83;;;20.80;99.90;;;;;;5031158;28;20250;-84
2023/08/03 01:47:57;;;;;;;0.83;0.63;;;20.90;99.90;;;;;;5045345;28;20176;-84
2023/08/03 01:50:23;;;;;;;1.27;0.80;;;20.90;99.90;;;;;;5031272;28;20267;-84
2023/08/03 01:52:49;;;;;;;1.00;0.80;;;20.90;99.90;;;;;;5047354;28;20168;-84
2023/08/03 01:55:14;;;;;;;1.33;0.73;;;20.90;99.90;;;;;;5033141;28;20176;-84
2023/08/03 01:57:40;;;;;;;1.13;0.70;;;21.00;99.90;;;;;;5031323;28;20276;-83
2023/08/03 02:00:07;;;;;;;1.33;0.70;;;21.00;99.90;;;;;;5028436;28;20260;-85
2023/08/03 02:02:32;;;;;;;1.40;0.73;;;20.90;99.90;;;;;;5033371;28;20237;-83
2023/08/03 02:04:58;;;;;;;0.97;0.87;;;20.90;99.90;;;;;;5026593;28;20192;-86
2023/08/03 02:07:43;;;;;;;1.63;0.80;;;21.00;99.90;;;;;;5032074;28;20219;-84
2023/08/03 02:10:14;;;;;;;1.80;0.73;;;20.90;99.90;;;;;;5025194;28;20218;-83
2023/08/03 02:12:40;;;;;;;1.10;0.90;;;20.90;99.90;;;;;;5049876;28;20164;-84
2023/08/03 02:15:06;;;;;;;1.37;0.77;;;20.90;99.90;;;;;;5023571;28;20247;-84
2023/08/03 02:17:33;;;;;;;1.40;0.90;;;21.00;99.90;;;;;;5026309;28;20173;-83
2023/08/03 02:19:58;;;;;;;1.40;0.87;;;20.90;99.90;;;;;;5027148;28;20668;-84
2023/08/03 02:22:27;;;;;;;2.07;0.80;;;20.90;99.90;;;;;;5048628;28;20582;-85
2023/08/03 02:24:55;;;;;;;1.77;0.90;;;21.00;99.90;;;;;;5045677;28;20173;-85
2023/08/03 02:27:21;;;;;;;1.50;0.90;;;20.90;99.90;;;;;;5029230;28;20212;-84
2023/08/03 02:29:49;;;;;;;2.63;0.90;;;20.90;99.90;;;;;;5029547;28;20172;-85
2023/08/03 02:32:15;;;;;;;1.10;0.83;;;20.90;99.90;;;;;;5046919;28;20179;-84
2023/08/03 02:34:40;;;;;;;2.40;1.00;;;20.90;99.90;;;;;;5030339;28;20169;-84
2023/08/03 02:37:08;;;;;;;2.00;0.93;;;20.90;99.90;;;;;;5049121;28;20192;-84
2023/08/03 02:39:34;;;;;;;0.97;0.87;;;20.90;99.90;;;;;;5030712;28;20366;-85
2023/08/03 02:41:59;;;;;;;1.00;0.90;;;20.90;99.90;;;;;;5036315;28;20181;-84
2023/08/03 02:44:28;;;;;;;2.30;1.00;;;21.00;99.90;;;;;;5046389;28;20188;-84
2023/08/03 02:46:54;;;;;;;1.10;0.80;;;20.90;99.90;;;;;;5030762;28;20212;-84
2023/08/03 02:49:19;;;;;;;2.60;0.80;;;21.00;99.90;;;;;;5030093;28;20624;-85
2023/08/03 02:51:45;;;;;;;1.80;1.10;;;20.90;99.90;;;;;;5028904;28;20188;-84
2023/08/03 02:54:10;;;;;;;1.83;0.90;;;21.00;99.90;;;;;;5049762;28;20230;-84
2023/08/03 02:56:36;;;;;;;2.47;1.00;;;20.90;99.90;;;;;;5027408;28;20188;-84
2023/08/03 02:59:02;;;;;;;2.27;0.93;;;20.90;99.90;;;;;;5033434;28;20211;-84
2023/08/03 03:01:28;;;;;;;1.57;0.90;;;20.90;99.90;;;;;;5027741;28;20257;-85
2023/08/03 03:03:53;;;;;;;2.33;0.97;;;20.90;99.90;;;;;;5043090;28;20239;-84
2023/08/03 03:06:23;;;;;;;1.50;1.03;;;20.90;99.90;;;;;;5034027;28;20275;-84
2023/08/03 03:08:49;;;;;;;2.43;0.90;;;20.90;99.90;;;;;;5029251;28;20180;-84
2023/08/03 03:11:14;;;;;;;1.40;1.00;;;20.80;99.90;;;;;;5036608;28;20280;-84
2023/08/03 03:13:40;;;;;;;1.33;0.90;;;20.80;99.90;;;;;;5047257;28;20179;-84
2023/08/03 03:16:06;;;;;;;3.47;1.00;;;20.80;99.90;;;;;;5026754;28;20519;-84
2023/08/03 03:18:31;;;;;;;2.50;1.00;;;20.80;99.90;;;;;;5028388;28;20172;-84
2023/08/03 03:20:57;;;;;;;2.00;0.87;;;20.80;99.90;;;;;;5044704;28;20200;-85
2023/08/03 03:23:22;;;;;;;1.87;1.10;;;20.80;99.90;;;;;;5033329;28;20188;-85
2023/08/03 03:25:52;;;;;;;2.13;0.90;;;20.80;99.90;;;;;;5045104;28;20290;-84
2023/08/03 03:28:17;;;;;;;2.13;1.20;;;20.90;99.90;;;;;;5025229;28;20402;-84
2023/08/03 03:30:43;;;;;;;1.93;1.00;;;20.90;99.90;;;;;;5025765;28;20276;-84
2023/08/03 03:33:08;;;;;;;1.83;1.10;;;20.80;99.90;;;;;;5024512;28;20471;-84
2023/08/03 03:35:35;;;;;;;1.73;0.90;;;20.80;99.90;;;;;;5028292;28;20267;-84
2023/08/03 03:38:00;;;;;;;2.77;1.10;;;20.80;99.90;;;;;;5024054;28;20188;-84
2023/08/03 03:40:27;;;;;;;2.17;1.10;;;20.80;99.90;;;;;;5024183;28;20181;-84
2023/08/03 03:42:53;;;;;;;1.53;1.20;;;20.80;99.90;;;;;;5042946;28;20279;-84
2023/08/03 03:45:19;;;;;;;1.83;1.00;;;20.80;99.90;;;;;;5027726;28;20279;-84
2023/08/03 03:47:45;;;;;;;1.37;0.90;;;20.70;99.90;;;;;;5033440;28;20188;-85
2023/08/03 03:50:10;;;;;;;1.83;1.10;;;20.80;99.90;;;;;;5031250;28;20447;-84
2023/08/03 03:52:36;;;;;;;1.67;1.00;;;20.80;99.90;;;;;;5032874;28;20262;-83
2023/08/03 03:55:09;;;;;;;0.87;0.70;;;20.70;99.90;;;;;;5028719;28;20576;-84
2023/08/03 03:57:36;;;;;;;1.80;0.90;;;20.80;99.90;;;;;;5042457;28;20176;-84
2023/08/03 04:00:04;;;;;;;1.57;0.90;;;20.80;99.90;;;;;;5028068;28;20176;-84
2023/08/03 04:02:30;;;;;;;3.63;1.23;;;20.80;99.90;;;;;;5024107;28;20181;-85
2023/08/03 04:04:56;;;;;;;2.23;1.10;;;20.80;99.90;;;;;;5047527;28;20249;-85
2023/08/03 04:07:22;;;;;;;1.60;1.00;;;20.70;99.90;;;;;;5043608;28;20208;-84
2023/08/03 04:09:48;;;;;;;1.83;0.90;;;20.80;99.90;;;;;;5029190;28;20257;-85
2023/08/03 04:12:13;;;;;;;1.63;1.10;;;20.80;99.90;;;;;;5024841;28;20182;-84
2023/08/03 04:14:42;;;;;;;1.97;0.93;;;20.80;99.90;;;;;;5026652;28;20627;-84
2023/08/03 04:17:08;;;;;;;1.70;0.80;;;20.80;99.90;;;;;;5026030;28;20392;-85
2023/08/03 04:19:36;;;;;;;1.20;0.87;;;20.80;99.90;;;;;;5041613;28;20413;-85
2023/08/03 04:22:02;;;;;;;2.43;0.83;;;20.70;99.90;;;;;;5046796;28;20570;-85
2023/08/03 04:24:28;;;;;;;1.13;0.80;;;20.70;99.90;;;;;;5024457;28;20626;-84
2023/08/03 04:26:54;;;;;;;0.77;0.77;;;20.70;99.90;;;;;;5029474;28;20425;-85
2023/08/03 04:29:19;;;;;;;3.27;1.10;;;20.70;99.90;;;;;;5040496;28;20289;-85
2023/08/03 04:31:49;;;;;;;2.17;0.90;;;20.80;99.90;;;;;;5033413;28;20516;-83
2023/08/03 04:34:14;;;;;;;1.53;0.80;;;20.70;99.90;;;;;;5035029;28;20187;-85
2023/08/03 04:36:42;;;;;;;1.53;1.10;;;20.70;99.90;;;;;;5041711;28;20461;-85
2023/08/03 04:39:10;;;;;;;1.10;0.90;;;20.70;99.90;;;;;;5023771;28;20176;-84
2023/08/03 04:41:37;;;;;;;2.23;1.03;;;20.70;99.90;;;;;;5028439;28;20180;-84
2023/08/03 04:44:03;;;;;;;1.80;1.00;;;20.70;99.90;;;;;;5043445;28;20177;-85
2023/08/03 04:46:28;;;;;;;1.27;0.70;;;20.70;99.90;;;;;;5038442;28;20222;-85
2023/08/03 04:48:54;;;;;;;0.97;0.80;;;20.70;99.90;;;;;;5032878;28;20430;-84
2023/08/03 04:51:21;;;;;;;1.40;0.90;;;20.70;99.90;;;;;;5025518;28;20173;-84
2023/08/03 04:53:46;;;;;;;2.03;1.07;;;20.80;99.90;;;;;;5008456;28;20176;-84
2023/08/03 04:56:14;;;;;;;2.00;1.00;;;20.80;99.90;;;;;;5026914;28;20172;-84
2023/08/03 04:58:42;;;;;;;1.40;0.80;;;20.80;99.90;;;;;;5043135;28;20509;-84
2023/08/03 05:01:10;;;;;;;1.30;1.00;;;20.80;99.90;;;;;;5022903;28;20173;-87
2023/08/03 05:03:36;;;;;;;1.90;1.10;;;20.80;99.90;;;;;;5032471;28;20200;-86
2023/08/03 05:06:01;;;;;;;2.10;0.90;;;20.70;99.90;;;;;;5021987;28;20244;-86
2023/08/03 05:08:27;;;;;;;1.27;0.80;;;20.60;99.90;;;;;;5040646;28;20180;-86
2023/08/03 05:10:54;;;;;;;1.40;0.83;;;20.70;99.90;;;;;;5022707;28;20181;-86
2023/08/03 05:13:22;;;;;;;2.40;0.90;;;20.70;99.90;;;;;;5023622;28;20177;-86
2023/08/03 05:15:48;;;;;;;1.30;1.00;;;20.80;99.90;;;;;;5027787;28;20208;-86
2023/08/03 05:18:13;;;;;;;1.90;1.00;;;20.80;99.90;;;;;;5041888;28;20212;-86
2023/08/03 05:20:40;;;;;;;1.90;1.00;;;20.70;99.90;;;;;;5028898;28;20191;-86
2023/08/03 05:23:06;;;;;;;1.40;1.00;;;20.70;99.90;;;;;;5023444;28;20660;-85
2023/08/03 05:25:32;;;;;;;1.40;0.90;;;20.70;99.90;;;;;;5019864;28;20461;-86
2023/08/03 05:27:58;;;;;;;0.93;0.80;;;20.70;99.90;;;;;;5044995;28;20588;-85
2023/08/03 05:30:24;;;;;;;1.63;0.90;;;20.80;99.90;;;;;;5024223;28;20339;-85
2023/08/03 05:32:49;;;;;;;1.50;0.90;;;20.80;99.90;;;;;;5025624;28;20279;-85
2023/08/03 05:35:16;;;;;;;1.53;0.90;;;20.80;99.90;;;;;;5024982;28;20245;-86
2023/08/03 05:37:42;;;;;;;1.57;0.80;;;20.80;99.90;;;;;;5027526;28;20176;-85
2023/08/03 05:40:09;;;;;;;1.60;1.00;;;20.80;99.90;;;;;;5041280;28;20311;-87
2023/08/03 05:42:40;;;;;;;1.10;0.90;;;20.80;99.90;;;;;;5022236;28;20243;-85
2023/08/03 05:45:33;;;;;;;2.00;1.00;;;20.80;99.90;;;;;;5025210;28;20351;-86
2023/08/03 05:48:03;;;;;;;1.43;0.80;;;20.90;99.90;;;;;;5025515;28;20290;-86
2023/08/03 05:50:29;;;;;;;1.27;0.90;;;20.90;99.90;;;;;;5042378;28;20180;-84
2023/08/03 05:52:56;;;;;;;2.13;0.97;;;20.90;99.90;;;;;;5024678;28;20207;-85
2023/08/03 05:55:25;;;;;;;1.03;0.83;;;20.90;99.90;;;;;;5024017;28;20505;-85
2023/08/03 05:57:50;;;;;;;2.50;1.00;;;21.00;99.90;;;;;;5022394;28;20274;-86
2023/08/03 06:00:36;;;;;;;2.20;0.90;;;20.90;99.90;;;;;;5022812;28;20282;-86
2023/08/03 06:03:03;;;;;;;3.93;1.10;;;21.00;99.90;;;;;;5022747;28;20187;-88
2023/08/03 06:05:37;;;;;;;1.63;0.97;;;21.00;99.90;;;;;;5024184;28;20247;-86
2023/08/03 06:08:23;;;;;;;2.87;1.10;;;21.00;99.90;;;;;;5021136;28;20184;-85
2023/08/03 06:10:51;;;;;;;2.03;0.90;;;21.00;99.90;;;;;;5021702;28;20184;-86
2023/08/03 06:13:19;;;;;;;2.33;1.20;;;21.00;99.90;;;;;;5021482;28;20299;-87
2023/08/03 06:15:47;;;;;;;1.57;0.80;;;21.00;99.90;;;;;;5025351;28;20263;-86
2023/08/03 06:18:21;;;;;;;1.00;0.83;;;21.00;99.90;;;;;;5021159;28;20271;-86
2023/08/03 06:20:59;;;;;;;1.93;0.90;;;21.00;99.90;;;;;;5024910;28;20287;-86
2023/08/03 06:23:28;;;;;;;1.83;0.80;;;21.00;99.90;;;;;;5024733;28;20270;-86
2023/08/03 06:25:55;;;;;;;1.20;0.80;;;21.00;99.90;;;;;;5039088;28;20205;-86
2023/08/03 06:28:25;;;;;;;2.20;0.73;;;21.00;99.90;;;;;;5025342;28;20607;-86
2023/08/03 06:30:51;;;;;;;2.03;0.90;;;21.00;99.90;;;;;;5020063;28;20482;-86
2023/08/03 06:33:21;;;;;;;1.13;0.80;;;21.00;99.90;;;;;;5023710;28;20180;-86
2023/08/03 06:35:48;;;;;;;1.60;0.97;;;21.00;99.90;;;;;;5022235;28;20215;-87
2023/08/03 06:38:22;;;;;;;3.77;0.87;;;21.10;99.90;;;;;;5036871;28;20184;-87
2023/08/03 06:40:50;;;;;;;1.73;0.80;;;21.00;99.90;;;;;;5038347;28;20180;-87
2023/08/03 06:43:16;;;;;;;0.80;0.80;;;21.00;99.90;;;;;;5023569;28;20376;-86
2023/08/03 06:45:42;;;;;;;2.00;1.07;;;21.00;99.90;;;;;;5017516;28;20643;-85
2023/08/03 06:48:14;;;;;;;1.77;0.80;;;21.00;99.90;;;;;;5020720;28;20188;-86
2023/08/03 06:50:40;;;;;;;2.23;0.80;;;21.00;99.90;;;;;;5023316;28;20246;-85
2023/08/03 06:53:06;;;;;;;1.10;0.80;;;21.00;99.90;;;;;;5018096;28;20173;-86
2023/08/03 06:55:32;;;;;;;2.77;0.77;;;21.00;99.90;;;;;;5020504;28;20580;-86
2023/08/03 06:57:58;;;;;;;1.47;0.73;;;21.00;99.90;;;;;;5018852;28;20181;-86
2023/08/03 07:00:24;;;;;;;1.00;0.80;;;21.00;99.90;;;;;;5037050;28;20245;-86
2023/08/03 07:02:50;;;;;;;1.10;0.83;;;21.00;99.90;;;;;;5020045;28;20252;-86
2023/08/03 07:05:16;;;;;;;0.93;0.70;;;20.90;99.90;;;;;;5027793;28;20176;-86
2023/08/03 07:07:42;;;;;;;1.87;0.70;;;20.90;99.90;;;;;;5049823;28;20188;-87
2023/08/03 07:10:08;;;;;;;1.97;0.70;;;21.00;99.90;;;;;;5026906;28;20191;-86
2023/08/03 07:12:35;;;;;;;2.07;0.70;;;21.00;99.90;;;;;;5046836;28;20180;-86
2023/08/03 07:15:00;;;;;;;1.67;0.90;;;21.00;99.90;;;;;;5039296;28;20176;-86
2023/08/03 07:17:27;;;;;;;0.77;0.50;;;21.00;99.90;;;;;;5042269;28;20475;-86
2023/08/03 07:19:54;;;;;;;2.07;0.83;;;21.00;99.90;;;;;;5030094;28;20187;-86
2023/08/03 07:22:23;;;;;;;2.03;1.00;;;21.00;99.90;;;;;;5032383;28;20571;-86
2023/08/03 07:24:49;;;;;;;0.77;0.60;;;21.00;99.90;;;;;;5037899;28;20169;-86
2023/08/03 07:27:15;;;;;;;3.17;0.90;;;21.00;99.90;;;;;;5022134;28;20250;-86
2023/08/03 07:29:42;;;;;;;1.63;0.90;;;21.10;99.90;;;;;;5021600;28;20184;-87
2023/08/03 07:32:08;;;;;;;0.70;0.70;;;21.10;99.90;;;;;;5038665;28;20172;-86
2023/08/03 07:34:36;;;;;;;1.90;0.73;;;21.10;99.90;;;;;;5022415;28;20325;-86
2023/08/03 07:37:03;;;;;;;1.03;0.73;;;21.10;99.90;;;;;;5014352;28;20292;-86
2023/08/03 07:39:29;;;;;;;1.83;1.07;;;21.10;99.90;;;;;;5020009;28;20179;-86
2023/08/03 07:41:55;;;;;;;0.80;0.80;;;21.10;99.90;;;;;;5015529;28;20663;-86
2023/08/03 07:44:21;;;;;;;1.10;1.00;;;21.10;99.90;;;;;;5034541;28;20580;-86
2023/08/03 07:46:47;;;;;;;0.93;0.77;;;21.10;99.90;;;;;;5018351;28;20208;-86
2023/08/03 07:49:13;;;;;;;1.47;1.00;;;21.20;99.90;;;;;;5031649;28;20207;-86
2023/08/03 07:51:39;;;;;;;2.60;0.90;;;21.20;99.90;;;;;;5018894;28;20180;-86
2023/08/03 07:54:05;;;;;;;1.47;0.90;;;21.20;99.90;;;;;;5037475;28;20169;-86
2023/08/03 07:56:31;;;;;;;2.03;1.10;;;21.20;99.90;;;;;;5038067;28;20215;-85
2023/08/03 07:58:57;;;;;;;3.50;1.10;;;21.20;99.90;;;;;;5036357;28;20566;-85
2023/08/03 08:01:23;;;;;;;2.83;1.00;;;21.20;99.90;;;;;;5015307;28;20678;-86
2023/08/03 08:03:49;;;;;;;2.10;1.10;;;21.20;99.90;;;;;;5019652;28;20188;-85
2023/08/03 08:06:18;;;;;;;1.33;1.10;;;21.20;99.90;;;;;;5032614;28;20212;-85
2023/08/03 08:08:44;;;;;;;1.90;1.07;;;21.20;99.90;;;;;;5019913;28;20181;-86
2023/08/03 08:11:11;;;;;;;2.90;1.20;;;21.20;99.90;;;;;;5034503;28;20180;-86
2023/08/03 08:13:37;;;;;;;1.77;1.20;;;21.30;99.90;;;;;;5017848;28;20184;-86
2023/08/03 08:16:06;;;;;;;3.27;1.20;;;21.30;99.90;;;;;;5032644;28;20180;-86
2023/08/03 08:18:33;;;;;;;1.50;1.10;;;21.30;99.90;;;;;;5032276;28;20271;-86
2023/08/03 08:21:00;;;;;;;1.30;1.13;;;21.30;99.90;;;;;;5017015;28;20353;-86
2023/08/03 08:23:27;;;;;;;1.87;0.90;;;21.40;99.90;;;;;;5018180;28;20196;-86
2023/08/03 08:25:53;;;;;;;2.23;1.30;;;21.40;99.90;;;;;;5015571;28;20344;-86
2023/08/03 08:28:20;;;;;;;3.40;1.17;;;21.40;99.90;;;;;;5018972;28;20199;-86
2023/08/03 08:30:45;;;;;;;0.90;0.83;;;21.50;99.90;;;;;;5018356;28;20554;-86
2023/08/03 08:33:15;;;;;;;2.07;0.80;;;21.50;99.90;;;;;;5028263;28;20200;-85
2023/08/03 08:35:42;;;;;;;2.97;1.10;;;21.60;99.90;;;;;;5022590;28;20278;-85
2023/08/03 08:38:12;;;;;;;5.27;1.17;;;21.60;99.90;;;;;;5020968;28;20171;-86
2023/08/03 08:40:40;;;;;;;1.70;1.03;;;21.70;99.90;;;;;;5022402;28;20180;-85
2023/08/03 08:43:08;;;;;;;2.00;1.10;;;21.80;99.90;;;;;;5016168;28;20181;-86
2023/08/03 08:45:34;;;;;;;2.97;1.20;;;21.90;99.90;;;;;;5041534;28;20547;-86
2023/08/03 08:48:01;;;;;;;1.10;1.00;;;21.90;99.90;;;;;;5020553;28;20502;-86
2023/08/03 08:50:27;;;;;;;1.17;1.07;;;21.80;99.90;;;;;;5038419;28;20176;-86
2023/08/03 08:52:53;;;;;;;2.80;1.07;;;21.80;99.90;;;;;;5019715;28;20429;-86
2023/08/03 08:55:24;;;;;;;3.73;0.90;;;21.80;99.90;;;;;;5038450;28;20238;-85
2023/08/03 08:57:51;;;;;;;1.20;0.90;;;21.80;99.90;;;;;;5038956;28;20664;-86
2023/08/03 09:00:18;;;;;;;1.83;1.30;;;21.70;99.90;;;;;;5018670;28;20181;-86
2023/08/03 09:02:43;;;;;;;2.30;1.10;;;21.60;99.90;;;;;;5038786;28;20180;-85
2023/08/03 09:05:23;;;;;;;1.20;1.10;;;21.60;99.90;;;;;;5019744;28;20390;-86
2023/08/03 09:08:16;;;;;;;1.27;1.10;;;21.60;99.90;;;;;;5022506;28;20484;-85
2023/08/03 09:10:53;;;;;;;1.57;1.10;;;21.60;99.90;;;;;;5021543;28;20435;-86
2023/08/03 09:13:26;;;;;;;4.97;1.27;;;21.60;99.90;;;;;;5017392;28;20504;-85
2023/08/03 09:15:52;;;;;;;3.13;1.20;;;21.60;99.90;;;;;;5019134;28;20218;-85
2023/08/03 09:18:20;;;;;;;1.43;1.13;;;21.60;99.90;;;;;;5016161;28;20181;-86
2023/08/03 09:20:45;;;;;;;1.70;1.00;;;21.60;99.90;;;;;;5018109;28;20185;-86
2023/08/03 09:23:30;;;;;;;2.57;1.10;;;21.60;99.90;;;;;;5021408;28;20218;-85
2023/08/03 09:25:56;;;;;;;1.33;1.00;;;21.60;99.90;;;;;;5017644;28;20239;-86
2023/08/03 09:28:38;;;;;;;1.00;0.90;;;21.60;99.90;;;;;;5020623;28;20420;-85
2023/08/03 09:31:05;;;;;;;2.37;1.00;;;21.60;99.90;;;;;;5031304;28;20208;-86
2023/08/03 09:33:32;;;;;;;2.13;1.10;;;21.60;99.90;;;;;;5029172;28;20191;-85
2023/08/03 09:36:08;;;;;;;1.90;1.20;;;21.60;99.90;;;;;;5016303;28;20191;-87
2023/08/03 09:38:34;;;;;;;2.10;1.10;;;21.60;99.90;;;;;;5038787;28;20215;-87
2023/08/03 09:41:00;;;;;;;2.40;1.00;;;21.70;99.90;;;;;;5017478;28;20203;-87
2023/08/03 09:43:27;;;;;;;1.70;1.10;;;21.60;99.90;;;;;;5020072;28;20444;-87
2023/08/03 09:45:54;;;;;;;2.13;0.97;;;21.60;99.90;;;;;;5021685;28;20208;-88
2023/08/03 09:48:20;;;;;;;1.20;0.90;;;21.70;99.90;;;;;;5016466;28;20566;-86
2023/08/03 09:50:51;;;;;;;1.33;1.10;;;21.60;99.90;;;;;;5017990;28;20365;-85
2023/08/03 09:53:21;;;;;;;1.80;1.00;;;21.60;99.90;;;;;;5034134;28;20176;-86
2023/08/03 09:56:00;;;;;;;1.27;0.80;;;21.60;99.90;;;;;;5035553;28;20561;-86
2023/08/03 09:58:49;;;;;;;3.03;1.23;;;21.60;99.90;;;;;;5040551;28;20204;-87
2023/08/03 10:01:18;;;;;;;1.10;1.00;;;21.60;99.90;;;;;;5014556;28;20180;-86
2023/08/03 10:03:52;;;;;;;3.37;1.20;;;21.70;99.90;;;;;;5016393;28;20181;-86
2023/08/03 10:06:21;;;;;;;1.60;1.10;;;21.70;99.90;;;;;;5016276;28;20219;-86
2023/08/03 10:09:05;;;;;;;1.83;1.10;;;21.70;99.90;;;;;;5016084;28;20181;-86
2023/08/03 10:11:36;;;;;;;1.67;1.20;;;21.70;99.90;;;;;;5013850;28;20572;-87
2023/08/03 10:14:04;;;;;;;4.03;1.10;;;21.80;99.90;;;;;;5032762;28;20638;-87
2023/08/03 10:16:33;;;;;;;1.60;1.10;;;21.80;99.90;;;;;;5016103;28;20196;-86
2023/08/03 10:18:59;;;;;;;2.27;1.10;;;21.80;99.90;;;;;;5016382;28;20294;-87
2023/08/03 10:21:25;;;;;;;2.00;1.20;;;21.80;99.90;;;;;;5019333;28;20192;-86
2023/08/03 10:24:16;;;;;;;2.60;1.10;;;21.80;99.90;;;;;;5014298;28;20371;-86
2023/08/03 10:26:43;;;;;;;2.33;1.20;;;21.80;99.90;;;;;;5023252;28;20482;-86
2023/08/03 10:29:11;;;;;;;2.30;1.07;;;21.80;99.90;;;;;;5032429;28;20192;-86
2023/08/03 10:31:54;;;;;;;2.40;1.00;;;21.80;99.90;;;;;;5045480;28;20338;-86
2023/08/03 10:34:28;;;;;;;1.73;1.10;;;21.90;99.90;;;;;;5021284;28;20176;-86
2023/08/03 10:36:56;;;;;;;2.00;1.00;;;21.80;99.90;;;;;;5037073;28;20244;-86
2023/08/03 10:39:40;;;;;;;2.73;1.00;;;21.90;99.90;;;;;;5023120;28;20222;-86
2023/08/03 10:42:34;;;;;;;1.90;1.00;;;21.90;99.90;;;;;;5038605;28;20444;-86
2023/08/03 10:45:26;;;;;;;2.37;1.07;;;21.90;99.90;;;;;;5018482;28;20370;-84
2023/08/03 10:47:53;;;;;;;1.67;1.00;;;21.90;99.90;;;;;;5024285;28;20247;-86
2023/08/03 10:50:19;;;;;;;1.50;1.00;;;21.90;99.90;;;;;;5015226;28;20343;-86
2023/08/03 10:52:45;;;;;;;3.17;1.20;;;21.90;99.90;;;;;;5013626;28;20187;-86
2023/08/03 10:55:26;;;;;;;2.27;1.10;;;21.90;99.90;;;;;;5014196;28;20539;-85
2023/08/03 10:57:56;;;;;;;3.13;1.00;;;21.90;99.90;;;;;;5013252;28;20252;-86
2023/08/03 11:00:22;;;;;;;1.97;1.23;;;21.90;99.90;;;;;;5016423;28;20239;-87
2023/08/03 11:02:49;;;;;;;2.53;1.10;;;21.90;99.90;;;;;;5030752;28;20200;-87
2023/08/03 11:05:15;;;;;;;1.70;0.93;;;22.00;99.90;;;;;;5017611;28;20233;-86
2023/08/03 11:07:45;;;;;;;2.20;1.40;;;21.90;99.90;;;;;;5029738;28;20201;-87
2023/08/03 11:10:15;;;;;;;1.80;0.90;;;22.00;99.90;;;;;;5016456;28;20214;-87
2023/08/03 11:12:42;;;;;;;1.67;1.10;;;21.90;99.90;;;;;;5018458;28;20455;-88
2023/08/03 11:15:09;;;;;;;1.03;0.90;;;21.90;99.90;;;;;;5028807;28;20182;-86
2023/08/03 11:17:37;;;;;;;2.27;1.00;;;21.90;99.90;;;;;;5037862;28;20687;-86
2023/08/03 11:20:06;;;;;;;1.73;1.20;;;21.90;99.90;;;;;;5014155;28;20185;-86
2023/08/03 11:22:31;;;;;;;1.60;1.10;;;22.00;99.90;;;;;;5015223;28;20641;-86
2023/08/03 11:25:00;;;;;;;2.13;1.10;;;21.90;99.90;;;;;;5018259;28;20188;-86
2023/08/03 11:27:26;;;;;;;1.33;0.90;;;21.90;99.90;;;;;;5033256;28;20207;-86
2023/08/03 11:29:53;;;;;;;2.50;1.20;;;21.90;99.90;;;;;;5017912;28;20272;-85
2023/08/03 11:32:32;;;;;;;3.00;1.10;;;21.90;99.90;;;;;;5019995;28;20540;-87
2023/08/03 11:35:05;;;;;;;1.53;1.03;;;21.90;99.90;;;;;;5015844;28;20467;-87
2023/08/03 11:37:35;;;;;;;1.80;1.27;;;21.90;99.90;;;;;;5037781;28;20187;-87
2023/08/03 11:40:06;;;;;;;1.70;1.20;;;22.00;99.90;;;;;;5028669;28;20541;-87
2023/08/03 11:42:33;;;;;;;1.90;0.90;;;22.00;99.90;;;;;;5035955;28;20176;-86
2023/08/03 11:44:59;;;;;;;1.57;1.20;;;22.00;99.90;;;;;;5015713;28;20181;-86
2023/08/03 11:47:25;;;;;;;1.93;1.10;;;22.00;99.90;;;;;;5014517;28;20277;-86
2023/08/03 11:49:54;;;;;;;3.53;1.47;;;22.00;99.90;;;;;;5017317;28;20173;-87
2023/08/03 11:52:21;;;;;;;1.57;1.20;;;22.00;99.90;;;;;;5015263;28;20173;-87
2023/08/03 11:54:48;;;;;;;1.80;1.13;;;22.00;99.90;;;;;;5016508;28;20176;-85
2023/08/03 12:00:02;;;;;;;1.63;1.17;;;22.00;99.90;;;;;;5030760;28;20180;-87
2023/08/03 12:02:42;;;;;;;1.43;1.07;;;22.00;99.90;;;;;;5019639;28;20189;-87
2023/08/03 12:05:09;;;;;;;2.80;1.23;;;22.10;99.90;;;;;;5017596;28;20181;-86
2023/08/03 12:07:37;;;;;;;1.70;1.20;;;22.10;99.90;;;;;;5019106;28;20582;-86
2023/08/03 12:10:12;;;;;;;1.57;1.13;;;22.00;99.90;;;;;;5013393;28;20254;-87
2023/08/03 12:12:42;;;;;;;1.80;1.23;;;22.00;99.90;;;;;;5016935;28;20273;-88
2023/08/03 12:15:08;;;;;;;1.77;1.13;;;22.10;99.90;;;;;;5022974;28;20537;-87
2023/08/03 12:17:34;;;;;;;1.27;1.10;;;22.10;99.90;;;;;;5014661;28;20185;-87
2023/08/03 12:20:00;;;;;;;2.27;1.00;;;22.10;99.90;;;;;;5017644;28;20218;-87
2023/08/03 12:22:25;;;;;;;1.90;1.20;;;22.10;99.90;;;;;;5015392;28;20204;-87
2023/08/03 12:24:51;;;;;;;1.73;1.07;;;22.10;99.90;;;;;;5014505;28;20471;-86
2023/08/03 12:27:17;;;;;;;3.53;1.37;;;22.10;99.90;;;;;;5014063;28;20241;-87
2023/08/03 12:29:42;;;;;;;1.90;1.10;;;22.20;99.90;;;;;;5014372;28;20295;-87
2023/08/03 12:32:08;;;;;;;1.73;1.20;;;22.20;99.90;;;;;;5013801;28;20337;-87
2023/08/03 12:34:34;;;;;;;1.73;1.10;;;22.20;99.90;;;;;;5010888;28;20180;-86
2023/08/03 12:37:00;;;;;;;2.50;1.30;;;22.20;99.90;;;;;;5010476;28;20570;-87
2023/08/03 12:39:27;;;;;;;1.73;1.20;;;22.20;99.90;;;;;;5010295;28;20191;-87
2023/08/03 12:41:52;;;;;;;2.73;1.10;;;22.20;99.90;;;;;;5012433;28;20327;-87
2023/08/03 12:44:18;;;;;;;3.20;1.20;;;22.30;99.90;;;;;;5013447;28;20283;-88
2023/08/03 12:46:44;;;;;;;1.90;1.00;;;22.20;99.90;;;;;;5030415;28;20394;-87
2023/08/03 12:49:10;;;;;;;1.60;0.90;;;22.30;99.90;;;;;;5013949;28;20181;-86
2023/08/03 12:51:36;;;;;;;1.50;1.13;;;22.30;99.90;;;;;;5012056;28;20176;-87
2023/08/03 12:54:05;;;;;;;1.70;1.10;;;22.30;99.90;;;;;;5016870;28;20172;-87